Time;durP1;ratioP1;P1;durP2;ratioP2;P2;SDS_P1;SDS_P2;PMS_P1;PMS_P2;Temp;Humidity;BMP_temperature;BMP_pressure;BME280_temperature;BME280_humidity;BME280_pressure;Samples;Min_cycle;Max_cycle;Signal;HPM_P1;HPM_P2
2024/02/22 00:00:25;;;;;;;6.10;2.93;;;17.40;63.90;;;;;;5070517;28;20453;-76
2024/02/22 00:02:53;;;;;;;3.07;2.73;;;17.40;64.00;;;;;;5071321;28;20533;-76
2024/02/22 00:05:22;;;;;;;3.63;2.63;;;17.40;64.00;;;;;;5071241;28;20483;-76
2024/02/22 00:07:51;;;;;;;4.57;2.97;;;17.40;64.10;;;;;;5071233;28;20523;-76
2024/02/22 00:10:19;;;;;;;4.70;3.37;;;17.40;64.10;;;;;;5070558;28;20434;-77
2024/02/22 00:12:46;;;;;;;3.53;3.13;;;17.40;64.10;;;;;;5071333;28;20526;-76
2024/02/22 00:15:16;;;;;;;5.00;3.37;;;17.40;64.30;;;;;;5071114;28;20499;-77
2024/02/22 00:17:44;;;;;;;2.70;2.53;;;17.40;64.30;;;;;;5069097;28;20544;-78
2024/02/22 00:20:16;;;;;;;3.40;3.10;;;17.40;64.40;;;;;;5069828;28;20434;-75
2024/02/22 00:22:44;;;;;;;3.10;2.90;;;17.40;64.30;;;;;;5069670;28;20441;-77
2024/02/22 00:25:12;;;;;;;3.17;2.77;;;17.40;64.40;;;;;;5069579;28;20434;-76
2024/02/22 00:27:40;;;;;;;3.63;2.70;;;17.40;64.30;;;;;;5069674;28;20473;-77
2024/02/22 00:30:12;;;;;;;3.57;2.60;;;17.50;64.40;;;;;;5073547;22;20514;-76
2024/02/22 00:32:42;;;;;;;2.93;2.63;;;17.50;64.40;;;;;;5049977;28;20458;-75
2024/02/22 00:35:11;;;;;;;5.40;2.77;;;17.50;64.50;;;;;;5046068;28;20559;-76
2024/02/22 00:37:39;;;;;;;3.60;3.30;;;17.50;64.60;;;;;;5051173;28;20466;-76
2024/02/22 00:40:09;;;;;;;3.00;2.80;;;17.50;64.60;;;;;;5068620;28;20465;-76
2024/02/22 00:42:37;;;;;;;5.00;3.03;;;17.50;64.60;;;;;;5071373;28;20433;-76
2024/02/22 00:45:06;;;;;;;2.77;2.57;;;17.50;64.80;;;;;;5072778;28;20462;-76
2024/02/22 00:47:33;;;;;;;2.40;2.30;;;17.50;64.80;;;;;;5069943;28;20475;-76
2024/02/22 00:50:03;;;;;;;5.87;2.90;;;17.40;64.70;;;;;;5071007;28;20462;-76
2024/02/22 00:52:31;;;;;;;2.60;2.50;;;17.40;64.90;;;;;;5070048;28;20438;-76
2024/02/22 00:54:59;;;;;;;3.20;2.97;;;17.50;64.90;;;;;;5069693;28;20497;-75
2024/02/22 00:57:27;;;;;;;3.90;2.37;;;17.50;65.10;;;;;;5073200;28;20519;-75
2024/02/22 00:59:55;;;;;;;2.70;2.50;;;17.50;65.00;;;;;;5073827;28;20465;-76
2024/02/22 01:02:26;;;;;;;2.90;2.60;;;17.40;65.10;;;;;;5073797;28;20877;-75
2024/02/22 01:04:54;;;;;;;3.33;2.73;;;17.50;65.10;;;;;;5072444;28;20450;-75
2024/02/22 01:07:23;;;;;;;3.13;2.73;;;17.40;65.20;;;;;;5074315;28;20429;-75
2024/02/22 01:09:51;;;;;;;2.70;2.50;;;17.50;65.30;;;;;;5074438;28;20465;-76
2024/02/22 01:12:19;;;;;;;2.50;2.40;;;17.50;65.10;;;;;;5074750;28;20484;-76
2024/02/22 01:14:47;;;;;;;3.00;2.80;;;17.50;65.20;;;;;;5074133;28;20488;-76
2024/02/22 01:17:16;;;;;;;2.80;2.60;;;17.50;65.40;;;;;;5074263;28;20544;-76
2024/02/22 01:19:45;;;;;;;2.50;2.40;;;17.50;65.40;;;;;;5074588;28;20469;-76
2024/02/22 01:22:13;;;;;;;2.50;2.30;;;17.50;65.40;;;;;;5072407;28;20507;-76
2024/02/22 01:24:42;;;;;;;2.87;2.70;;;17.50;65.40;;;;;;5074684;28;20445;-76
2024/02/22 01:27:11;;;;;;;4.77;2.37;;;17.50;65.50;;;;;;5074500;28;20481;-76
2024/02/22 01:29:41;;;;;;;2.90;2.70;;;17.50;65.60;;;;;;5074044;28;20481;-76
2024/02/22 01:32:09;;;;;;;2.30;2.20;;;17.50;65.60;;;;;;5074032;28;20440;-77
2024/02/22 01:34:37;;;;;;;2.70;2.50;;;17.50;65.60;;;;;;5074270;28;20437;-76
2024/02/22 01:37:05;;;;;;;2.60;2.40;;;17.50;65.80;;;;;;5072687;28;20482;-76
2024/02/22 01:39:33;;;;;;;2.80;2.60;;;17.50;65.60;;;;;;5074240;28;20484;-76
2024/02/22 01:42:02;;;;;;;2.93;2.70;;;17.50;65.50;;;;;;5074114;28;20441;-76
2024/02/22 01:44:30;;;;;;;3.90;2.27;;;17.50;65.60;;;;;;5074196;28;20487;-76
2024/02/22 01:46:58;;;;;;;2.53;2.37;;;17.50;65.80;;;;;;5074375;28;20442;-76
2024/02/22 01:49:26;;;;;;;2.80;2.60;;;17.50;65.70;;;;;;5073182;28;20461;-75
2024/02/22 01:51:58;;;;;;;2.90;2.70;;;17.50;65.70;;;;;;5074371;28;20441;-75
2024/02/22 01:54:26;;;;;;;2.23;2.13;;;17.50;65.80;;;;;;5073970;28;20445;-76
2024/02/22 01:56:54;;;;;;;2.90;2.50;;;17.50;65.80;;;;;;5072544;28;20512;-75
2024/02/22 01:59:23;;;;;;;2.30;2.20;;;17.50;65.90;;;;;;5074076;28;20493;-76
2024/02/22 02:01:51;;;;;;;2.87;2.37;;;17.50;66.00;;;;;;5073800;28;20442;-75
2024/02/22 02:04:20;;;;;;;2.43;2.33;;;17.50;66.00;;;;;;5073695;28;20933;-76
2024/02/22 02:06:48;;;;;;;2.47;2.37;;;17.50;66.10;;;;;;5072732;28;20433;-75
2024/02/22 02:09:16;;;;;;;2.20;2.00;;;17.50;66.00;;;;;;5073706;28;20454;-76
2024/02/22 02:11:44;;;;;;;2.33;2.13;;;17.50;66.30;;;;;;5073579;28;20484;-76
2024/02/22 02:14:13;;;;;;;2.40;2.20;;;17.50;66.00;;;;;;5078093;28;20526;-76
2024/02/22 02:16:42;;;;;;;7.00;2.30;;;17.50;66.30;;;;;;5082217;28;21074;-75
2024/02/22 02:19:11;;;;;;;2.07;1.97;;;17.60;66.40;;;;;;5078521;28;20461;-76
2024/02/22 02:21:43;;;;;;;2.00;1.90;;;17.50;66.00;;;;;;5074474;28;20940;-76
2024/02/22 02:24:14;;;;;;;2.10;2.00;;;17.50;66.30;;;;;;5073041;28;20434;-76
2024/02/22 02:26:43;;;;;;;2.47;2.37;;;17.50;66.40;;;;;;5073547;28;20437;-75
2024/02/22 02:29:12;;;;;;;2.30;2.20;;;17.50;66.50;;;;;;5073137;28;20493;-75
2024/02/22 02:31:40;;;;;;;2.27;2.07;;;17.50;66.60;;;;;;5067983;28;20450;-75
2024/02/22 02:34:08;;;;;;;2.40;2.20;;;17.50;66.60;;;;;;5072592;28;20503;-75
2024/02/22 02:36:37;;;;;;;3.23;2.43;;;17.50;66.50;;;;;;5073483;28;20497;-76
2024/02/22 02:39:05;;;;;;;2.50;2.10;;;17.50;66.50;;;;;;5072879;28;20511;-76
2024/02/22 02:41:33;;;;;;;2.00;1.90;;;17.50;66.50;;;;;;5068158;28;20450;-76
2024/02/22 02:44:02;;;;;;;1.93;1.80;;;17.60;66.50;;;;;;5072508;28;20476;-77
2024/02/22 02:46:30;;;;;;;1.80;1.70;;;17.60;66.70;;;;;;5064743;28;20544;-77
2024/02/22 02:48:58;;;;;;;2.10;2.00;;;17.50;66.60;;;;;;5071953;28;20465;-76
2024/02/22 02:51:28;;;;;;;2.23;2.13;;;17.60;66.80;;;;;;5072802;28;20480;-77
2024/02/22 02:53:56;;;;;;;2.30;2.20;;;17.60;66.80;;;;;;5072759;28;20541;-76
2024/02/22 02:56:24;;;;;;;2.40;2.20;;;17.60;66.40;;;;;;5072976;28;20536;-75
2024/02/22 02:58:52;;;;;;;2.53;2.43;;;17.60;66.80;;;;;;5072341;28;20540;-75
2024/02/22 03:01:22;;;;;;;2.63;2.43;;;17.60;66.90;;;;;;5072115;28;20446;-75
2024/02/22 03:03:50;;;;;;;5.47;3.53;;;17.60;66.90;;;;;;5072408;28;20434;-75
2024/02/22 03:06:17;;;;;;;4.10;3.70;;;17.60;66.90;;;;;;5071537;28;20513;-75
2024/02/22 03:08:45;;;;;;;3.77;3.47;;;17.60;66.90;;;;;;5072197;28;20514;-75
2024/02/22 03:11:14;;;;;;;4.30;3.90;;;17.60;66.90;;;;;;5072028;28;20433;-75
2024/02/22 03:13:42;;;;;;;6.10;4.23;;;17.60;67.00;;;;;;5071949;28;20446;-75
2024/02/22 03:16:11;;;;;;;7.27;4.60;;;17.60;67.20;;;;;;5072070;28;20437;-75
2024/02/22 03:18:41;;;;;;;5.03;4.57;;;17.60;67.20;;;;;;5071522;28;20496;-75
2024/02/22 03:21:10;;;;;;;4.80;4.30;;;17.60;67.20;;;;;;5070182;28;20970;-75
2024/02/22 03:23:38;;;;;;;5.10;4.60;;;17.60;67.20;;;;;;5071790;28;20445;-75
2024/02/22 03:26:06;;;;;;;6.17;4.80;;;17.60;67.30;;;;;;5072063;28;20481;-75
2024/02/22 03:28:35;;;;;;;5.37;4.30;;;17.60;67.30;;;;;;5070800;28;20461;-75
2024/02/22 03:31:03;;;;;;;5.13;4.60;;;17.60;67.20;;;;;;5071953;28;20438;-75
2024/02/22 03:33:31;;;;;;;5.77;4.60;;;17.60;67.30;;;;;;5070635;28;20472;-75
2024/02/22 03:36:01;;;;;;;7.07;5.10;;;17.60;67.30;;;;;;5071398;28;20434;-76
2024/02/22 03:38:28;;;;;;;5.70;4.63;;;17.60;67.20;;;;;;5070677;28;20516;-76
2024/02/22 03:40:56;;;;;;;6.03;5.20;;;17.60;67.50;;;;;;5072279;28;20449;-75
2024/02/22 03:43:25;;;;;;;5.90;4.73;;;17.60;67.30;;;;;;5071480;28;20450;-75
2024/02/22 03:45:53;;;;;;;5.40;4.83;;;17.60;67.40;;;;;;5071598;28;20477;-76
2024/02/22 03:48:21;;;;;;;5.00;4.20;;;17.60;67.60;;;;;;5071633;28;20520;-75
2024/02/22 03:50:49;;;;;;;4.70;4.30;;;17.70;67.70;;;;;;5071940;28;20492;-76
2024/02/22 03:53:18;;;;;;;4.90;4.40;;;17.60;67.50;;;;;;5071384;28;20469;-75
2024/02/22 03:55:46;;;;;;;5.20;4.40;;;17.70;67.30;;;;;;5070402;28;20453;-75
2024/02/22 03:58:14;;;;;;;5.80;5.00;;;17.70;67.70;;;;;;5071289;28;20469;-76
2024/02/22 04:00:42;;;;;;;7.30;4.80;;;17.70;67.40;;;;;;5071308;28;20538;-76
2024/02/22 04:03:10;;;;;;;4.47;4.07;;;17.70;67.40;;;;;;5071117;28;20442;-75
2024/02/22 04:05:38;;;;;;;4.30;3.90;;;17.70;67.70;;;;;;5063022;28;20438;-75
2024/02/22 04:08:07;;;;;;;5.93;4.70;;;17.70;67.70;;;;;;5071549;28;20440;-75
2024/02/22 04:10:36;;;;;;;4.57;4.17;;;17.70;67.90;;;;;;5070372;28;20450;-75
2024/02/22 04:13:04;;;;;;;4.47;4.07;;;17.70;67.80;;;;;;5071256;28;20466;-76
2024/02/22 04:15:32;;;;;;;4.90;3.90;;;17.70;67.80;;;;;;5071263;28;20437;-76
2024/02/22 04:18:00;;;;;;;4.33;3.80;;;17.70;67.80;;;;;;5070980;28;20489;-76
2024/02/22 04:20:28;;;;;;;4.80;4.30;;;17.70;67.80;;;;;;5066155;28;20437;-76
2024/02/22 04:22:56;;;;;;;6.50;4.10;;;17.70;67.80;;;;;;5071304;28;20487;-75
2024/02/22 04:25:25;;;;;;;4.50;4.10;;;17.70;68.00;;;;;;5071210;28;20470;-76
2024/02/22 04:27:54;;;;;;;4.30;3.90;;;17.70;67.80;;;;;;5065369;28;20532;-75
2024/02/22 04:30:21;;;;;;;4.60;4.20;;;17.70;67.90;;;;;;5070037;28;20507;-75
2024/02/22 04:32:49;;;;;;;3.80;3.50;;;17.70;68.10;;;;;;5071363;28;20437;-76
2024/02/22 04:35:18;;;;;;;3.90;3.47;;;17.70;68.10;;;;;;5070976;28;20480;-76
2024/02/22 04:37:46;;;;;;;4.67;3.57;;;17.70;68.00;;;;;;5070781;28;20474;-76
2024/02/22 04:40:14;;;;;;;4.20;3.80;;;17.70;68.20;;;;;;5070892;28;20504;-76
2024/02/22 04:42:42;;;;;;;3.20;2.97;;;17.70;68.10;;;;;;5070189;28;20499;-76
2024/02/22 04:45:12;;;;;;;3.83;3.53;;;17.70;68.20;;;;;;5070847;28;20499;-76
2024/02/22 04:47:40;;;;;;;3.60;3.30;;;17.80;68.30;;;;;;5070143;28;20460;-75
2024/02/22 04:50:09;;;;;;;4.67;4.27;;;17.70;68.30;;;;;;5070759;28;20487;-75
2024/02/22 04:52:37;;;;;;;4.10;3.53;;;17.70;68.20;;;;;;5071235;28;20442;-76
2024/02/22 04:55:06;;;;;;;2.90;2.70;;;17.70;68.30;;;;;;5070582;28;20472;-76
2024/02/22 04:57:35;;;;;;;3.37;3.07;;;17.70;68.40;;;;;;5070998;28;20480;-75
2024/02/22 05:00:05;;;;;;;3.70;3.37;;;17.70;68.30;;;;;;5063167;28;20972;-75
2024/02/22 05:02:34;;;;;;;3.20;3.00;;;17.80;68.50;;;;;;5071476;28;20432;-74
2024/02/22 05:05:03;;;;;;;2.80;2.63;;;17.80;68.50;;;;;;5056982;28;20465;-75
2024/02/22 05:07:31;;;;;;;3.13;2.90;;;17.80;68.50;;;;;;5052005;28;20496;-75
2024/02/22 05:09:59;;;;;;;3.60;3.30;;;17.80;68.50;;;;;;5051987;28;20455;-75
2024/02/22 05:12:27;;;;;;;3.87;3.53;;;17.80;68.50;;;;;;5052528;28;20480;-75
2024/02/22 05:14:55;;;;;;;2.70;2.50;;;17.80;68.70;;;;;;5051879;28;20478;-75
2024/02/22 05:17:24;;;;;;;3.60;3.30;;;17.80;68.60;;;;;;5051959;28;20500;-75
2024/02/22 05:19:53;;;;;;;3.20;2.97;;;17.80;68.70;;;;;;5051628;28;20547;-75
2024/02/22 05:22:21;;;;;;;3.03;2.83;;;17.80;68.70;;;;;;5060784;28;20445;-75
2024/02/22 05:24:49;;;;;;;2.80;2.60;;;17.80;68.80;;;;;;5071393;28;20456;-75
2024/02/22 05:27:17;;;;;;;2.77;2.57;;;17.80;68.70;;;;;;5071513;28;20438;-75
2024/02/22 05:29:46;;;;;;;3.40;2.57;;;17.80;68.60;;;;;;5071185;28;20497;-75
2024/02/22 05:32:13;;;;;;;2.77;2.57;;;17.80;68.90;;;;;;5071707;28;20461;-75
2024/02/22 05:34:41;;;;;;;2.40;2.30;;;17.80;68.60;;;;;;5071092;28;20449;-74
2024/02/22 05:37:11;;;;;;;2.93;2.73;;;17.90;69.00;;;;;;5072943;28;20438;-75
2024/02/22 05:39:40;;;;;;;2.43;2.30;;;17.80;68.80;;;;;;5065952;28;20521;-76
2024/02/22 05:42:09;;;;;;;2.73;2.53;;;17.90;68.90;;;;;;5074391;28;20473;-76
2024/02/22 05:44:36;;;;;;;2.37;2.27;;;17.90;69.00;;;;;;5076944;28;20437;-76
2024/02/22 05:47:05;;;;;;;2.70;2.50;;;17.80;68.80;;;;;;5075406;28;20442;-75
2024/02/22 05:49:33;;;;;;;2.57;2.37;;;17.90;69.00;;;;;;5074970;28;21001;-76
2024/02/22 05:52:01;;;;;;;2.57;2.40;;;17.90;69.10;;;;;;5075599;28;20534;-75
2024/02/22 05:54:30;;;;;;;2.80;2.60;;;17.90;69.10;;;;;;5074736;28;20537;-76
2024/02/22 05:56:58;;;;;;;2.17;2.07;;;17.90;69.30;;;;;;5074377;28;20532;-75
2024/02/22 05:59:26;;;;;;;2.03;1.93;;;17.90;69.10;;;;;;5075262;28;20500;-75
2024/02/22 06:01:54;;;;;;;2.33;2.23;;;17.90;69.00;;;;;;5071906;28;20472;-76
2024/02/22 06:04:22;;;;;;;2.20;2.10;;;17.90;69.30;;;;;;5075047;28;20445;-77
2024/02/22 06:06:50;;;;;;;2.47;2.27;;;17.90;69.20;;;;;;5070709;28;20434;-77
2024/02/22 06:09:18;;;;;;;2.23;2.13;;;17.90;69.20;;;;;;5075077;28;20454;-77
2024/02/22 06:11:47;;;;;;;2.60;2.40;;;18.00;69.20;;;;;;5072053;28;20529;-77
2024/02/22 06:14:15;;;;;;;3.00;2.30;;;18.00;69.20;;;;;;5068203;28;20449;-77
2024/02/22 06:16:44;;;;;;;2.20;2.10;;;18.00;69.20;;;;;;5071448;28;20444;-77
2024/02/22 06:19:11;;;;;;;3.80;2.23;;;18.00;69.40;;;;;;5069963;28;20505;-76
2024/02/22 06:21:39;;;;;;;2.23;2.13;;;17.90;69.20;;;;;;5073184;28;20552;-76
2024/02/22 06:24:08;;;;;;;2.20;2.10;;;18.00;69.40;;;;;;5073162;28;20518;-74
2024/02/22 06:26:37;;;;;;;2.10;2.00;;;18.00;69.40;;;;;;5065597;28;20514;-74
2024/02/22 06:29:10;;;;;;;2.27;2.17;;;17.90;69.40;;;;;;5074556;28;20457;-75
2024/02/22 06:31:38;;;;;;;2.07;1.97;;;18.00;69.50;;;;;;5070379;28;20449;-75
2024/02/22 06:34:06;;;;;;;2.20;2.10;;;18.00;69.40;;;;;;5061876;28;20442;-75
2024/02/22 06:36:34;;;;;;;1.93;1.83;;;18.00;69.30;;;;;;5065378;28;20434;-75
2024/02/22 06:39:03;;;;;;;1.70;1.60;;;18.00;69.30;;;;;;5074079;28;20473;-77
2024/02/22 06:41:31;;;;;;;1.77;1.73;;;18.00;69.50;;;;;;5065748;28;20456;-76
2024/02/22 06:44:00;;;;;;;2.23;2.13;;;18.00;69.40;;;;;;5054147;28;20473;-76
2024/02/22 06:46:30;;;;;;;2.00;1.90;;;18.00;69.40;;;;;;5058805;28;20474;-75
2024/02/22 06:48:58;;;;;;;2.30;2.20;;;18.00;69.30;;;;;;5073262;28;20536;-75
2024/02/22 06:51:25;;;;;;;2.20;2.10;;;18.00;69.30;;;;;;5073423;28;20438;-75
2024/02/22 06:53:54;;;;;;;2.20;2.03;;;18.00;70.10;;;;;;5073134;28;20442;-75
2024/02/22 06:56:22;;;;;;;2.30;2.10;;;18.00;69.50;;;;;;5073512;28;20457;-75
2024/02/22 06:58:50;;;;;;;2.20;2.10;;;18.10;69.70;;;;;;5073552;28;20476;-75
2024/02/22 07:01:18;;;;;;;2.17;2.07;;;18.10;69.50;;;;;;5074311;28;20454;-74
2024/02/22 07:03:48;;;;;;;2.27;2.10;;;18.10;69.40;;;;;;5076400;28;20477;-77
2024/02/22 07:06:16;;;;;;;2.03;1.93;;;18.10;69.50;;;;;;5073807;28;20453;-75
2024/02/22 07:08:44;;;;;;;2.20;2.10;;;18.10;69.60;;;;;;5072065;28;20460;-76
2024/02/22 07:11:13;;;;;;;2.10;2.00;;;18.10;69.70;;;;;;5073200;28;20524;-75
2024/02/22 07:13:44;;;;;;;2.07;1.97;;;18.10;69.50;;;;;;5073136;28;20456;-75
2024/02/22 07:16:12;;;;;;;2.17;1.97;;;18.10;69.70;;;;;;5071640;28;20430;-75
2024/02/22 07:18:41;;;;;;;2.03;1.93;;;18.10;69.40;;;;;;5073007;28;20496;-75
2024/02/22 07:21:10;;;;;;;2.10;2.00;;;18.10;69.40;;;;;;5072011;28;20477;-75
2024/02/22 07:23:38;;;;;;;1.97;1.87;;;18.10;69.50;;;;;;5072796;28;21001;-75
2024/02/22 07:26:07;;;;;;;2.07;1.97;;;18.10;69.40;;;;;;5058195;28;20484;-75
2024/02/22 07:28:35;;;;;;;1.90;1.80;;;18.10;69.60;;;;;;5072704;28;20467;-75
2024/02/22 07:31:03;;;;;;;2.10;2.00;;;18.10;69.60;;;;;;5065032;28;20926;-75
2024/02/22 07:33:31;;;;;;;2.50;2.37;;;18.20;69.70;;;;;;5069067;28;20434;-73
2024/02/22 07:35:59;;;;;;;2.27;2.17;;;18.20;69.70;;;;;;5065195;28;20542;-75
2024/02/22 07:38:30;;;;;;;2.13;2.03;;;18.20;69.80;;;;;;5063991;28;20458;-74
2024/02/22 07:41:01;;;;;;;2.07;1.97;;;18.20;69.70;;;;;;5065598;28;20473;-74
2024/02/22 07:43:30;;;;;;;1.80;1.70;;;18.20;69.80;;;;;;5061303;28;20450;-76
2024/02/22 07:46:03;;;;;;;2.00;1.90;;;18.20;69.70;;;;;;5052671;28;20560;-75
2024/02/22 07:48:31;;;;;;;1.80;1.70;;;18.30;69.70;;;;;;5068934;28;20560;-77
2024/02/22 07:51:00;;;;;;;1.83;1.73;;;18.30;69.80;;;;;;5072091;28;20438;-74
2024/02/22 07:53:33;;;;;;;2.43;2.20;;;18.20;69.80;;;;;;5071777;28;20434;-77
2024/02/22 07:56:03;;;;;;;2.00;1.90;;;18.30;69.70;;;;;;5071460;28;20448;-76
2024/02/22 07:58:33;;;;;;;2.00;1.90;;;18.30;70.00;;;;;;5064069;28;20458;-74
2024/02/22 08:01:01;;;;;;;2.30;2.13;;;18.30;70.00;;;;;;5063255;28;20473;-75
2024/02/22 08:03:29;;;;;;;1.97;1.87;;;18.30;69.70;;;;;;5069937;28;20468;-76
2024/02/22 08:05:57;;;;;;;2.07;1.97;;;18.30;69.90;;;;;;5067553;28;20471;-76
2024/02/22 08:08:25;;;;;;;2.00;1.90;;;18.30;69.90;;;;;;5072109;28;20497;-75
2024/02/22 08:10:55;;;;;;;2.37;2.27;;;18.30;70.00;;;;;;5072576;28;20448;-76
2024/02/22 08:13:23;;;;;;;2.20;2.10;;;18.30;69.90;;;;;;5072636;28;20452;-76
2024/02/22 08:15:51;;;;;;;2.40;2.23;;;18.30;69.80;;;;;;5072428;28;20479;-76
2024/02/22 08:18:19;;;;;;;2.00;1.90;;;18.40;69.90;;;;;;5072601;28;20434;-75
2024/02/22 08:20:48;;;;;;;2.07;1.97;;;18.40;70.20;;;;;;5072252;28;20478;-76
2024/02/22 08:23:16;;;;;;;5.93;1.73;;;18.40;69.90;;;;;;5072231;28;20920;-77
2024/02/22 08:25:44;;;;;;;2.13;2.03;;;18.40;69.90;;;;;;5072126;28;20813;-76
2024/02/22 08:28:13;;;;;;;2.10;2.00;;;18.40;69.90;;;;;;5072402;28;20500;-76
2024/02/22 08:30:42;;;;;;;2.10;2.00;;;18.40;69.90;;;;;;5063800;28;20446;-75
2024/02/22 08:33:11;;;;;;;2.00;1.90;;;18.40;70.00;;;;;;5072183;28;20536;-76
2024/02/22 08:35:39;;;;;;;2.40;2.30;;;18.50;70.00;;;;;;5067387;28;20468;-76
2024/02/22 08:38:09;;;;;;;2.80;2.20;;;18.50;69.90;;;;;;5072113;28;20469;-76
2024/02/22 08:40:38;;;;;;;2.20;2.10;;;18.50;70.00;;;;;;5071638;28;20469;-76
2024/02/22 08:43:08;;;;;;;2.00;1.90;;;18.60;70.40;;;;;;5073213;28;20863;-75
2024/02/22 08:45:37;;;;;;;1.97;1.87;;;18.70;70.30;;;;;;5072502;28;20456;-76
2024/02/22 08:48:07;;;;;;;1.97;1.87;;;18.90;70.40;;;;;;5070079;28;20445;-75
2024/02/22 08:50:35;;;;;;;2.90;2.23;;;19.00;70.00;;;;;;5070318;28;20453;-76
2024/02/22 08:53:04;;;;;;;2.20;2.00;;;19.10;69.60;;;;;;5062666;28;20481;-76
2024/02/22 08:55:32;;;;;;;1.97;1.77;;;19.10;69.40;;;;;;5070932;28;20434;-76
2024/02/22 08:58:00;;;;;;;1.97;1.87;;;19.10;69.20;;;;;;5070530;28;20442;-76
2024/02/22 09:00:29;;;;;;;3.23;2.00;;;19.10;69.50;;;;;;5077524;28;20465;-76
2024/02/22 09:02:58;;;;;;;6.67;2.20;;;19.10;69.50;;;;;;5072759;28;20524;-76
2024/02/22 09:05:26;;;;;;;2.20;2.10;;;19.10;69.50;;;;;;5078365;28;20479;-76
2024/02/22 09:07:54;;;;;;;3.60;1.93;;;19.20;69.50;;;;;;5079843;28;20436;-76
2024/02/22 09:10:23;;;;;;;2.20;2.00;;;19.20;69.60;;;;;;5078530;28;20483;-76
2024/02/22 09:12:51;;;;;;;1.80;1.70;;;19.20;69.50;;;;;;5072397;28;20528;-76
2024/02/22 09:15:19;;;;;;;3.23;2.03;;;19.20;69.50;;;;;;5071779;28;20516;-76
2024/02/22 09:17:48;;;;;;;2.10;1.90;;;19.20;69.60;;;;;;5074226;28;20495;-76
2024/02/22 09:20:18;;;;;;;2.37;2.17;;;19.20;69.60;;;;;;5067816;28;20480;-77
2024/02/22 09:22:47;;;;;;;2.80;2.03;;;19.30;69.90;;;;;;5074658;28;20909;-77
2024/02/22 09:25:16;;;;;;;3.53;2.50;;;19.40;69.80;;;;;;5074534;28;20437;-77
2024/02/22 09:27:44;;;;;;;2.70;2.50;;;19.40;69.60;;;;;;5074570;28;20518;-77
2024/02/22 09:30:13;;;;;;;2.40;2.20;;;19.40;69.60;;;;;;5074198;28;20461;-76
2024/02/22 09:32:42;;;;;;;4.17;2.23;;;19.50;69.90;;;;;;5074224;28;20491;-76
2024/02/22 09:35:10;;;;;;;2.57;2.00;;;19.50;69.60;;;;;;5074424;28;20434;-76
2024/02/22 09:37:41;;;;;;;3.60;2.23;;;19.70;69.80;;;;;;5074046;28;20959;-76
2024/02/22 09:40:12;;;;;;;1.93;1.83;;;19.80;69.70;;;;;;5066366;28;20489;-76
2024/02/22 09:42:40;;;;;;;2.83;2.07;;;19.90;69.90;;;;;;5070461;28;20437;-77
2024/02/22 09:45:09;;;;;;;2.60;2.20;;;20.00;69.60;;;;;;5074042;28;20440;-76
2024/02/22 09:47:37;;;;;;;2.27;2.17;;;20.10;69.80;;;;;;5073824;28;20484;-76
2024/02/22 09:50:09;;;;;;;2.30;2.10;;;20.20;69.90;;;;;;5073689;28;20460;-77
2024/02/22 09:52:40;;;;;;;6.60;2.07;;;20.30;69.80;;;;;;5073953;28;20469;-76
2024/02/22 09:55:09;;;;;;;2.30;2.10;;;20.50;69.80;;;;;;5073560;28;20521;-76
2024/02/22 09:57:37;;;;;;;3.40;2.00;;;20.60;70.20;;;;;;5073359;28;20489;-76
2024/02/22 10:00:07;;;;;;;4.60;2.10;;;20.70;70.30;;;;;;5073295;28;20450;-76
2024/02/22 10:02:36;;;;;;;5.00;2.20;;;20.80;69.90;;;;;;5073248;28;20497;-77
2024/02/22 10:05:06;;;;;;;2.80;1.70;;;21.00;69.80;;;;;;5073487;28;20573;-77
2024/02/22 10:07:35;;;;;;;1.90;1.80;;;21.00;69.70;;;;;;5074048;28;20441;-77
2024/02/22 10:10:06;;;;;;;1.70;1.60;;;21.00;69.30;;;;;;5073483;28;20897;-77
2024/02/22 10:12:35;;;;;;;1.93;1.77;;;21.00;69.70;;;;;;5073279;28;20481;-77
2024/02/22 10:15:08;;;;;;;7.07;2.00;;;20.90;69.60;;;;;;5073209;28;20434;-76
2024/02/22 10:17:37;;;;;;;4.30;1.87;;;20.90;69.70;;;;;;5073836;28;20529;-77
2024/02/22 10:20:09;;;;;;;4.13;2.23;;;20.90;69.80;;;;;;5073330;28;20481;-78
2024/02/22 10:22:38;;;;;;;3.13;2.43;;;20.90;70.00;;;;;;5074052;28;20480;-77
2024/02/22 10:25:10;;;;;;;2.80;2.40;;;20.90;70.20;;;;;;5073667;28;20488;-77
2024/02/22 10:27:38;;;;;;;4.70;1.90;;;20.90;70.00;;;;;;5072456;28;20548;-78
2024/02/22 10:30:10;;;;;;;6.00;2.43;;;21.00;70.10;;;;;;5076344;28;20508;-78
2024/02/22 10:32:39;;;;;;;2.53;2.20;;;21.00;70.10;;;;;;5076823;28;20440;-78
2024/02/22 10:35:07;;;;;;;2.77;2.30;;;21.00;69.90;;;;;;5075226;28;20534;-77
2024/02/22 10:37:36;;;;;;;9.73;2.40;;;21.00;69.80;;;;;;5075082;28;20442;-78
2024/02/22 10:40:05;;;;;;;2.60;2.20;;;21.00;69.70;;;;;;5074002;28;20523;-77
2024/02/22 10:42:35;;;;;;;4.30;2.63;;;21.00;70.00;;;;;;5073447;28;20499;-77
2024/02/22 10:45:03;;;;;;;7.73;2.57;;;21.10;70.20;;;;;;5073457;28;20440;-77
2024/02/22 10:47:31;;;;;;;3.70;2.47;;;21.10;70.00;;;;;;5073127;28;20438;-77
2024/02/22 10:50:02;;;;;;;6.27;2.63;;;21.20;69.70;;;;;;5073450;28;20472;-77
2024/02/22 10:52:30;;;;;;;5.30;3.07;;;21.30;70.10;;;;;;5073160;28;20940;-77
2024/02/22 10:54:58;;;;;;;2.90;2.50;;;21.40;70.40;;;;;;5073797;28;20441;-77
2024/02/22 10:57:28;;;;;;;3.10;2.50;;;21.60;70.40;;;;;;5072884;28;20472;-77
2024/02/22 10:59:57;;;;;;;6.13;3.30;;;21.70;69.80;;;;;;5072841;28;20461;-77
2024/02/22 11:02:26;;;;;;;4.00;2.87;;;21.80;70.10;;;;;;5072806;28;20999;-77
2024/02/22 11:04:59;;;;;;;5.07;3.10;;;22.00;69.80;;;;;;5073077;28;20477;-77
2024/02/22 11:07:28;;;;;;;3.20;2.90;;;22.10;69.80;;;;;;5073304;28;20466;-77
2024/02/22 11:10:05;;;;;;;5.77;3.53;;;22.40;70.20;;;;;;5072858;28;20553;-77
2024/02/22 11:12:33;;;;;;;7.60;2.80;;;22.70;70.00;;;;;;5072773;28;20444;-77
2024/02/22 11:15:10;;;;;;;4.00;2.60;;;22.80;69.10;;;;;;5073751;28;20528;-75
2024/02/22 11:17:39;;;;;;;5.60;2.87;;;22.90;68.90;;;;;;5072444;28;20457;-76
2024/02/22 11:20:08;;;;;;;6.23;2.67;;;23.00;68.40;;;;;;5072350;28;20560;-76
2024/02/22 11:22:36;;;;;;;4.37;2.87;;;22.90;68.10;;;;;;5072766;28;20455;-76
2024/02/22 11:25:07;;;;;;;4.83;2.60;;;22.90;68.00;;;;;;5072549;28;20425;-76
2024/02/22 11:27:36;;;;;;;3.77;2.67;;;22.90;68.20;;;;;;5072632;28;20512;-76
2024/02/22 11:30:16;;;;;;;2.60;2.40;;;22.80;68.10;;;;;;5072049;28;20513;-76
2024/02/22 11:32:44;;;;;;;9.50;3.37;;;22.80;68.20;;;;;;5072457;28;20528;-76
2024/02/22 11:35:13;;;;;;;4.73;3.00;;;22.70;68.10;;;;;;5072268;28;20457;-76
2024/02/22 11:37:41;;;;;;;7.13;3.10;;;22.70;68.20;;;;;;5072197;28;20455;-76
2024/02/22 11:40:09;;;;;;;7.43;3.40;;;22.60;68.20;;;;;;5072212;28;20470;-76
2024/02/22 11:42:37;;;;;;;5.40;3.30;;;22.50;68.00;;;;;;5071700;28;20474;-75
2024/02/22 11:45:12;;;;;;;7.73;3.70;;;22.50;68.00;;;;;;5072035;28;20544;-76
2024/02/22 11:47:42;;;;;;;4.63;3.40;;;22.40;68.10;;;;;;5071724;28;20491;-76
2024/02/22 11:50:10;;;;;;;3.27;2.97;;;22.30;68.60;;;;;;5071489;28;20519;-76
2024/02/22 11:52:38;;;;;;;4.00;3.57;;;22.30;68.30;;;;;;5071697;28;20442;-76
2024/02/22 11:55:09;;;;;;;4.60;3.30;;;22.20;68.70;;;;;;5072014;28;20420;-75
2024/02/22 11:57:37;;;;;;;6.33;3.90;;;22.20;68.40;;;;;;5071631;28;20416;-76
2024/02/22 12:00:08;;;;;;;6.87;4.10;;;22.10;68.50;;;;;;5071768;28;20833;-76
2024/02/22 12:02:36;;;;;;;7.00;3.90;;;22.10;68.50;;;;;;5071722;28;20469;-76
2024/02/22 12:05:06;;;;;;;5.13;3.50;;;22.10;68.70;;;;;;5071903;28;20541;-76
2024/02/22 12:07:35;;;;;;;7.40;3.70;;;22.20;68.80;;;;;;5071335;28;20445;-76
2024/02/22 12:10:03;;;;;;;4.87;3.37;;;22.20;68.20;;;;;;5071640;28;20449;-76
2024/02/22 12:12:32;;;;;;;5.00;3.90;;;22.20;68.10;;;;;;5071563;28;20525;-76
2024/02/22 12:15:01;;;;;;;7.00;4.20;;;22.20;68.00;;;;;;5071680;28;20469;-76
2024/02/22 12:17:30;;;;;;;4.83;3.70;;;22.20;67.90;;;;;;5071631;28;20532;-76
2024/02/22 12:19:59;;;;;;;6.13;3.53;;;22.10;67.70;;;;;;5071233;28;20457;-77
2024/02/22 12:22:31;;;;;;;5.63;3.90;;;22.10;67.90;;;;;;5071434;28;20524;-76
2024/02/22 12:24:59;;;;;;;6.60;4.00;;;22.00;67.60;;;;;;5082539;28;20457;-76
2024/02/22 12:27:27;;;;;;;6.20;3.80;;;21.90;67.70;;;;;;5087536;28;20412;-76
2024/02/22 12:29:57;;;;;;;4.57;3.57;;;22.00;68.30;;;;;;5097246;22;20525;-78
2024/02/22 12:32:26;;;;;;;7.73;3.80;;;22.30;68.00;;;;;;5051678;28;20441;-77
2024/02/22 12:34:54;;;;;;;4.70;3.40;;;22.50;68.60;;;;;;5053407;28;20421;-79
2024/02/22 12:37:23;;;;;;;4.10;3.67;;;22.80;67.00;;;;;;5052321;28;20454;-78
2024/02/22 12:39:52;;;;;;;4.53;4.10;;;23.10;66.40;;;;;;5057342;28;20508;-78
2024/02/22 12:42:22;;;;;;;4.90;3.50;;;24.10;67.80;;;;;;5071177;28;20444;-79
2024/02/22 12:44:50;;;;;;;4.30;3.53;;;24.60;63.30;;;;;;5071333;28;20432;-80
2024/02/22 12:47:18;;;;;;;4.83;3.50;;;25.00;61.00;;;;;;5071493;28;20529;-78
2024/02/22 12:49:46;;;;;;;4.10;3.47;;;24.60;59.80;;;;;;5070790;28;20436;-80
2024/02/22 12:52:15;;;;;;;6.03;3.33;;;24.30;60.20;;;;;;5074927;28;20984;-78
2024/02/22 12:54:43;;;;;;;6.03;3.83;;;24.00;60.80;;;;;;5075174;28;20443;-78